sensor_id;sensor_type;location;lat;lon;timestamp;pressure;altitude;pressure_sealevel;temperature;humidity
48035;BME280;33812;46.480;6.834;2023-05-23T00:01:31;93592.13;;;22.42;48.83
48035;BME280;33812;46.480;6.834;2023-05-23T00:05:36;93582.31;;;22.28;48.11
48035;BME280;33812;46.480;6.834;2023-05-23T00:09:38;93583.94;;;22.16;48.86
48035;BME280;33812;46.480;6.834;2023-05-23T00:13:41;93583.94;;;22.16;48.78
48035;BME280;33812;46.480;6.834;2023-05-23T00:17:43;93580.97;;;22.10;49.29
48035;BME280;33812;46.480;6.834;2023-05-23T00:21:46;93581.41;;;22.31;49.14
48035;BME280;33812;46.480;6.834;2023-05-23T00:25:49;93578.53;;;22.35;48.66
48035;BME280;33812;46.480;6.834;2023-05-23T00:29:53;93578.28;;;22.20;48.57
48035;BME280;33812;46.480;6.834;2023-05-23T00:33:55;93581.25;;;22.26;48.69
48035;BME280;33812;46.480;6.834;2023-05-23T00:37:57;93591.41;;;22.29;48.68
48035;BME280;33812;46.480;6.834;2023-05-23T00:42:03;93590.44;;;22.22;48.24
48035;BME280;33812;46.480;6.834;2023-05-23T00:46:07;93587.41;;;22.30;48.75
48035;BME280;33812;46.480;6.834;2023-05-23T00:50:11;93589.47;;;22.39;49.14
48035;BME280;33812;46.480;6.834;2023-05-23T00:54:15;93588.50;;;22.10;48.28
48035;BME280;33812;46.480;6.834;2023-05-23T00:58:20;93596.59;;;22.04;48.91
48035;BME280;33812;46.480;6.834;2023-05-23T01:02:23;93606.66;;;22.11;48.58
48035;BME280;33812;46.480;6.834;2023-05-23T01:06:25;93603.91;;;21.98;48.53
48035;BME280;33812;46.480;6.834;2023-05-23T01:10:29;93606.41;;;22.18;48.75
48035;BME280;33812;46.480;6.834;2023-05-23T01:14:35;93601.25;;;22.30;48.46
48035;BME280;33812;46.480;6.834;2023-05-23T01:18:45;93604.03;;;22.30;48.45
48035;BME280;33812;46.480;6.834;2023-05-23T01:23:09;93603.19;;;22.20;48.62
48035;BME280;33812;46.480;6.834;2023-05-23T01:27:23;93603.97;;;22.20;48.82
48035;BME280;33812;46.480;6.834;2023-05-23T01:31:34;93585.47;;;22.17;48.71
48035;BME280;33812;46.480;6.834;2023-05-23T01:35:36;93593.88;;;21.91;48.65
48035;BME280;33812;46.480;6.834;2023-05-23T01:39:38;93585.94;;;21.80;48.53
48035;BME280;33812;46.480;6.834;2023-05-23T01:43:40;93591.97;;;22.01;48.60
48035;BME280;33812;46.480;6.834;2023-05-23T01:47:44;93590.16;;;22.07;48.57
48035;BME280;33812;46.480;6.834;2023-05-23T01:51:52;93597.06;;;22.03;48.80
48035;BME280;33812;46.480;6.834;2023-05-23T01:55:58;93593.41;;;21.93;48.44
48035;BME280;33812;46.480;6.834;2023-05-23T02:00:07;93597.63;;;21.97;48.30
48035;BME280;33812;46.480;6.834;2023-05-23T02:04:12;93596.78;;;21.74;48.91
48035;BME280;33812;46.480;6.834;2023-05-23T02:08:15;93593.88;;;21.91;48.28
48035;BME280;33812;46.480;6.834;2023-05-23T02:12:16;93600.63;;;21.90;48.58
48035;BME280;33812;46.480;6.834;2023-05-23T02:16:18;93590.97;;;21.95;48.78
48035;BME280;33812;46.480;6.834;2023-05-23T02:20:23;93598.50;;;21.94;48.29
48035;BME280;33812;46.480;6.834;2023-05-23T02:24:25;93596.63;;;21.91;48.28
48035;BME280;33812;46.480;6.834;2023-05-23T02:28:28;93602.63;;;21.77;48.83
48035;BME280;33812;46.480;6.834;2023-05-23T02:32:29;93607.69;;;21.91;48.60
48035;BME280;33812;46.480;6.834;2023-05-23T02:36:33;93602.94;;;21.92;48.56
48035;BME280;33812;46.480;6.834;2023-05-23T02:40:38;93603.03;;;22.01;48.28
48035;BME280;33812;46.480;6.834;2023-05-23T02:44:40;93608.47;;;21.92;48.14
48035;BME280;33812;46.480;6.834;2023-05-23T02:48:44;93599.88;;;21.77;48.14
48035;BME280;33812;46.480;6.834;2023-05-23T02:52:48;93608.47;;;21.79;48.17
48035;BME280;33812;46.480;6.834;2023-05-23T02:56:51;93604.63;;;21.63;48.25
48035;BME280;33812;46.480;6.834;2023-05-23T03:00:54;93604.53;;;21.67;48.54
48035;BME280;33812;46.480;6.834;2023-05-23T03:05:00;93606.75;;;21.59;48.29
48035;BME280;33812;46.480;6.834;2023-05-23T03:09:03;93606.31;;;21.60;48.52
48035;BME280;33812;46.480;6.834;2023-05-23T03:13:05;93610.16;;;21.76;48.46
48035;BME280;33812;46.480;6.834;2023-05-23T03:17:07;93617.59;;;21.79;48.08
48035;BME280;33812;46.480;6.834;2023-05-23T03:21:09;93616.72;;;21.56;48.40
48035;BME280;33812;46.480;6.834;2023-05-23T03:25:14;93609.31;;;21.66;48.36
48035;BME280;33812;46.480;6.834;2023-05-23T03:29:15;93613.16;;;21.69;48.23
48035;BME280;33812;46.480;6.834;2023-05-23T03:33:17;93619.25;;;21.50;47.98
48035;BME280;33812;46.480;6.834;2023-05-23T03:37:19;93613.28;;;21.65;48.24
48035;BME280;33812;46.480;6.834;2023-05-23T03:41:23;93616.44;;;21.90;48.38
48035;BME280;33812;46.480;6.834;2023-05-23T03:45:26;93618.78;;;21.91;47.88
48035;BME280;33812;46.480;6.834;2023-05-23T03:49:28;93618.69;;;21.82;48.15
48035;BME280;33812;46.480;6.834;2023-05-23T03:53:30;93623.25;;;22.11;48.06
48035;BME280;33812;46.480;6.834;2023-05-23T03:57:33;93633.28;;;22.31;47.87
48035;BME280;33812;46.480;6.834;2023-05-23T04:01:34;93636.03;;;22.31;47.69
48035;BME280;33812;46.480;6.834;2023-05-23T04:05:36;93629.16;;;22.36;47.64
48035;BME280;33812;46.480;6.834;2023-05-23T04:09:38;93628.81;;;22.33;47.63
48035;BME280;33812;46.480;6.834;2023-05-23T04:13:41;93633.00;;;22.38;47.53
48035;BME280;33812;46.480;6.834;2023-05-23T04:17:43;93637.19;;;22.43;47.79
48035;BME280;33812;46.480;6.834;2023-05-23T04:21:44;93635.50;;;22.45;47.45
48035;BME280;33812;46.480;6.834;2023-05-23T04:25:46;93629.97;;;22.45;47.41
48035;BME280;33812;46.480;6.834;2023-05-23T04:29:50;93636.16;;;22.50;47.68
48035;BME280;33812;46.480;6.834;2023-05-23T04:33:52;93641.72;;;22.50;47.01
48035;BME280;33812;46.480;6.834;2023-05-23T04:37:54;93644.81;;;22.52;46.96
48035;BME280;33812;46.480;6.834;2023-05-23T04:41:58;93646.47;;;22.49;47.08
48035;BME280;33812;46.480;6.834;2023-05-23T04:46:01;93653.13;;;22.52;46.60
48035;BME280;33812;46.480;6.834;2023-05-23T04:50:04;93659.59;;;22.36;47.34
48035;BME280;33812;46.480;6.834;2023-05-23T04:54:06;93651.16;;;22.39;47.22
48035;BME280;33812;46.480;6.834;2023-05-23T04:58:07;93669.31;;;22.40;47.00
48035;BME280;33812;46.480;6.834;2023-05-23T05:02:10;93662.31;;;22.49;46.86
48035;BME280;33812;46.480;6.834;2023-05-23T05:06:12;93673.25;;;22.52;47.26
48035;BME280;33812;46.480;6.834;2023-05-23T05:10:14;93660.69;;;22.38;46.65
48035;BME280;33812;46.480;6.834;2023-05-23T05:14:17;93668.03;;;22.32;47.65
48035;BME280;33812;46.480;6.834;2023-05-23T05:18:20;93661.53;;;22.26;47.63
48035;BME280;33812;46.480;6.834;2023-05-23T05:22:22;93657.03;;;22.41;47.28
48035;BME280;33812;46.480;6.834;2023-05-23T05:26:25;93657.28;;;22.34;47.57
48035;BME280;33812;46.480;6.834;2023-05-23T05:30:29;93663.31;;;22.42;47.93
48035;BME280;33812;46.480;6.834;2023-05-23T05:34:37;93662.94;;;22.30;47.71
48035;BME280;33812;46.480;6.834;2023-05-23T05:38:40;93656.47;;;22.11;48.01
48035;BME280;33812;46.480;6.834;2023-05-23T05:42:44;93654.09;;;22.22;47.97
48035;BME280;33812;46.480;6.834;2023-05-23T05:46:46;93652.56;;;22.21;48.44
48035;BME280;33812;46.480;6.834;2023-05-23T05:50:50;93663.84;;;22.27;48.02
48035;BME280;33812;46.480;6.834;2023-05-23T05:54:53;93659.75;;;22.19;47.99
48035;BME280;33812;46.480;6.834;2023-05-23T05:58:57;93655.41;;;22.31;48.38
48035;BME280;33812;46.480;6.834;2023-05-23T06:02:58;93662.41;;;22.22;48.15
48035;BME280;33812;46.480;6.834;2023-05-23T06:07:02;93659.31;;;22.20;48.01
48035;BME280;33812;46.480;6.834;2023-05-23T06:11:04;93658.09;;;22.21;47.88
48035;BME280;33812;46.480;6.834;2023-05-23T06:15:07;93655.22;;;22.25;47.24
48035;BME280;33812;46.480;6.834;2023-05-23T06:19:09;93661.53;;;22.26;48.00
48035;BME280;33812;46.480;6.834;2023-05-23T06:23:13;93657.94;;;22.03;47.39
48035;BME280;33812;46.480;6.834;2023-05-23T06:27:14;93662.53;;;22.19;47.60
48035;BME280;33812;46.480;6.834;2023-05-23T06:31:18;93656.03;;;22.13;47.76
48035;BME280;33812;46.480;6.834;2023-05-23T06:35:20;93657.97;;;22.25;47.37
48035;BME280;33812;46.480;6.834;2023-05-23T06:39:23;93656.22;;;22.18;48.15
48035;BME280;33812;46.480;6.834;2023-05-23T06:43:25;93657.84;;;22.29;47.34
48035;BME280;33812;46.480;6.834;2023-05-23T06:47:27;93658.59;;;22.29;47.64
48035;BME280;33812;46.480;6.834;2023-05-23T06:51:28;93656.28;;;22.28;47.90
48035;BME280;33812;46.480;6.834;2023-05-23T06:55:32;93653.22;;;22.26;48.07
48035;BME280;33812;46.480;6.834;2023-05-23T06:59:34;93658.25;;;22.40;47.71
48035;BME280;33812;46.480;6.834;2023-05-23T07:03:35;93647.22;;;22.27;47.74
48035;BME280;33812;46.480;6.834;2023-05-23T07:07:41;93653.47;;;22.41;47.77
48035;BME280;33812;46.480;6.834;2023-05-23T07:11:44;93648.97;;;22.34;48.06
48035;BME280;33812;46.480;6.834;2023-05-23T07:15:46;93655.16;;;22.38;47.81
48035;BME280;33812;46.480;6.834;2023-05-23T07:19:48;93652.69;;;22.40;48.22
48035;BME280;33812;46.480;6.834;2023-05-23T07:23:49;93655.59;;;22.37;48.36
48035;BME280;33812;46.480;6.834;2023-05-23T07:27:53;93659.81;;;22.41;48.33
48035;BME280;33812;46.480;6.834;2023-05-23T07:31:55;93661.66;;;22.44;47.80
48035;BME280;33812;46.480;6.834;2023-05-23T07:35:58;93668.00;;;22.45;48.13
48035;BME280;33812;46.480;6.834;2023-05-23T07:40:00;93671.72;;;22.51;47.80
48035;BME280;33812;46.480;6.834;2023-05-23T07:44:03;93665.53;;;22.47;47.38
48035;BME280;33812;46.480;6.834;2023-05-23T07:48:04;93658.31;;;22.50;47.61
48035;BME280;33812;46.480;6.834;2023-05-23T07:52:06;93661.72;;;22.54;47.44
48035;BME280;33812;46.480;6.834;2023-05-23T07:56:08;93653.88;;;22.52;47.32
48035;BME280;33812;46.480;6.834;2023-05-23T08:00:12;93652.78;;;22.50;47.67
48035;BME280;33812;46.480;6.834;2023-05-23T08:04:14;93654.19;;;22.54;47.33
48035;BME280;33812;46.480;6.834;2023-05-23T08:08:16;93658.81;;;22.57;47.45
48035;BME280;33812;46.480;6.834;2023-05-23T08:12:18;93651.75;;;22.56;47.47
48035;BME280;33812;46.480;6.834;2023-05-23T08:16:21;93651.31;;;22.58;47.53
48035;BME280;33812;46.480;6.834;2023-05-23T08:20:23;93646.88;;;22.61;48.27
48035;BME280;33812;46.480;6.834;2023-05-23T08:24:30;93649.97;;;22.63;48.15
48035;BME280;33812;46.480;6.834;2023-05-23T08:28:34;93656.38;;;22.59;48.16
48035;BME280;33812;46.480;6.834;2023-05-23T08:32:37;93655.19;;;22.61;47.85
48035;BME280;33812;46.480;6.834;2023-05-23T08:36:39;93647.53;;;22.65;47.95
48035;BME280;33812;46.480;6.834;2023-05-23T08:40:49;93648.88;;;22.60;47.49
48035;BME280;33812;46.480;6.834;2023-05-23T08:44:51;93648.53;;;22.58;47.68
48035;BME280;33812;46.480;6.834;2023-05-23T08:48:57;93660.94;;;22.66;47.89
48035;BME280;33812;46.480;6.834;2023-05-23T08:53:03;93657.84;;;22.64;47.69
48035;BME280;33812;46.480;6.834;2023-05-23T08:57:08;93643.06;;;22.45;48.04
48035;BME280;33812;46.480;6.834;2023-05-23T18:22:11;93511.31;;;22.98;47.98
48035;BME280;33812;46.480;6.834;2023-05-23T18:26:14;93519.03;;;22.94;48.32
48035;BME280;33812;46.480;6.834;2023-05-23T18:30:16;93516.69;;;22.92;48.28
48035;BME280;33812;46.480;6.834;2023-05-23T18:34:18;93525.59;;;22.87;48.27
48035;BME280;33812;46.480;6.834;2023-05-23T18:38:21;93517.28;;;22.87;48.53
48035;BME280;33812;46.480;6.834;2023-05-23T18:42:23;93523.16;;;22.89;48.44
48035;BME280;33812;46.480;6.834;2023-05-23T18:46:24;93524.53;;;22.85;48.55
48035;BME280;33812;46.480;6.834;2023-05-23T18:50:26;93526.38;;;22.88;48.09
48035;BME280;33812;46.480;6.834;2023-05-23T18:54:30;93525.31;;;22.85;48.28
48035;BME280;33812;46.480;6.834;2023-05-23T18:58:31;93519.16;;;22.90;48.42
48035;BME280;33812;46.480;6.834;2023-05-23T19:02:34;93521.94;;;22.90;48.49
48035;BME280;33812;46.480;6.834;2023-05-23T19:06:36;93522.69;;;22.91;48.96
48035;BME280;33812;46.480;6.834;2023-05-23T19:10:39;93515.94;;;22.92;49.27
48035;BME280;33812;46.480;6.834;2023-05-23T19:14:41;93519.16;;;22.90;48.69
48035;BME280;33812;46.480;6.834;2023-05-23T19:18:42;93523.00;;;22.93;49.00
48035;BME280;33812;46.480;6.834;2023-05-23T19:22:44;93524.69;;;22.90;48.88
48035;BME280;33812;46.480;6.834;2023-05-23T19:26:48;93535.78;;;22.90;48.76
48035;BME280;33812;46.480;6.834;2023-05-23T19:30:50;93541.34;;;22.90;48.56
48035;BME280;33812;46.480;6.834;2023-05-23T19:34:52;93556.25;;;22.93;49.65
48035;BME280;33812;46.480;6.834;2023-05-23T19:38:54;93553.94;;;22.91;48.83
48035;BME280;33812;46.480;6.834;2023-05-23T19:42:58;93554.28;;;22.93;49.04
48035;BME280;33812;46.480;6.834;2023-05-23T19:47:00;93557.03;;;22.93;49.09
48035;BME280;33812;46.480;6.834;2023-05-23T19:51:02;93561.03;;;22.92;49.14
48035;BME280;33812;46.480;6.834;2023-05-23T19:55:04;93560.53;;;22.85;48.87
48035;BME280;33812;46.480;6.834;2023-05-23T19:59:08;93566.25;;;22.90;48.43
48035;BME280;33812;46.480;6.834;2023-05-23T20:03:10;93573.81;;;22.90;48.80
48035;BME280;33812;46.480;6.834;2023-05-23T20:07:11;93583.47;;;22.85;48.39
48035;BME280;33812;46.480;6.834;2023-05-23T20:11:13;93577.03;;;22.88;47.95
48035;BME280;33812;46.480;6.834;2023-05-23T20:15:16;93575.47;;;22.87;49.03
48035;BME280;33812;46.480;6.834;2023-05-23T20:19:18;93578.56;;;22.89;48.56
48035;BME280;33812;46.480;6.834;2023-05-23T20:23:20;93585.66;;;22.90;48.94
48035;BME280;33812;46.480;6.834;2023-05-23T20:27:22;93601.50;;;22.90;48.54
48035;BME280;33812;46.480;6.834;2023-05-23T20:31:25;93612.59;;;22.90;48.72
48035;BME280;33812;46.480;6.834;2023-05-23T20:35:27;93614.91;;;22.91;48.99
48035;BME280;33812;46.480;6.834;2023-05-23T20:39:29;93618.13;;;22.90;48.71
48035;BME280;33812;46.480;6.834;2023-05-23T20:43:31;93615.03;;;22.88;48.73
48035;BME280;33812;46.480;6.834;2023-05-23T20:47:37;93612.22;;;22.78;47.90
48035;BME280;33812;46.480;6.834;2023-05-23T20:51:40;93616.72;;;22.85;48.81
48035;BME280;33812;46.480;6.834;2023-05-23T20:55:42;93627.28;;;22.77;48.28
48035;BME280;33812;46.480;6.834;2023-05-23T20:59:44;93625.50;;;22.84;48.56
48035;BME280;33812;46.480;6.834;2023-05-23T21:03:47;93623.63;;;22.80;48.58
48035;BME280;33812;46.480;6.834;2023-05-23T21:07:49;93611.31;;;22.81;48.27
48035;BME280;33812;46.480;6.834;2023-05-23T21:11:51;93625.75;;;22.76;47.69
48035;BME280;33812;46.480;6.834;2023-05-23T21:15:54;93625.63;;;22.80;48.31
48035;BME280;33812;46.480;6.834;2023-05-23T21:19:58;93625.50;;;22.84;48.09
48035;BME280;33812;46.480;6.834;2023-05-23T21:24:00;93621.75;;;22.77;48.13
48035;BME280;33812;46.480;6.834;2023-05-23T21:28:02;93628.06;;;22.78;48.44
48035;BME280;33812;46.480;6.834;2023-05-23T21:32:06;93630.53;;;22.76;48.05
48035;BME280;33812;46.480;6.834;2023-05-23T21:36:09;93636.97;;;22.73;48.12
48035;BME280;33812;46.480;6.834;2023-05-23T21:40:11;93633.41;;;22.72;48.05
48035;BME280;33812;46.480;6.834;2023-05-23T21:44:13;93632.78;;;22.68;48.27
48035;BME280;33812;46.480;6.834;2023-05-23T21:48:16;93631.69;;;22.65;47.86
48035;BME280;33812;46.480;6.834;2023-05-23T21:52:20;93629.81;;;22.62;47.85
48035;BME280;33812;46.480;6.834;2023-05-23T21:56:21;93627.38;;;22.64;47.78
48035;BME280;33812;46.480;6.834;2023-05-23T22:00:23;93623.50;;;22.62;47.64
48035;BME280;33812;46.480;6.834;2023-05-23T22:04:26;93625.16;;;22.59;47.20
48035;BME280;33812;46.480;6.834;2023-05-23T22:08:29;93622.06;;;22.57;47.66
48035;BME280;33812;46.480;6.834;2023-05-23T22:12:32;93630.84;;;22.55;47.37
48035;BME280;33812;46.480;6.834;2023-05-23T22:16:34;93622.41;;;22.59;47.08
48035;BME280;33812;46.480;6.834;2023-05-23T22:20:38;93628.53;;;22.76;48.52
48035;BME280;33812;46.480;6.834;2023-05-23T22:24:41;93629.03;;;22.84;48.30
48035;BME280;33812;46.480;6.834;2023-05-23T22:28:43;93621.38;;;22.88;48.12
48035;BME280;33812;46.480;6.834;2023-05-23T22:32:45;93624.47;;;22.90;48.29
48035;BME280;33812;46.480;6.834;2023-05-23T22:36:47;93630.28;;;22.92;48.28
48035;BME280;33812;46.480;6.834;2023-05-23T22:40:50;93613.25;;;22.94;48.21
48035;BME280;33812;46.480;6.834;2023-05-23T22:44:51;93614.00;;;22.94;48.46
48035;BME280;33812;46.480;6.834;2023-05-23T22:48:54;93624.63;;;22.96;48.38
48035;BME280;33812;46.480;6.834;2023-05-23T22:52:57;93623.41;;;22.97;48.29
48035;BME280;33812;46.480;6.834;2023-05-23T22:57:01;93621.41;;;22.98;48.39
48035;BME280;33812;46.480;6.834;2023-05-23T23:01:03;93622.19;;;22.98;48.27
48035;BME280;33812;46.480;6.834;2023-05-23T23:05:06;93615.41;;;22.99;48.44
48035;BME280;33812;46.480;6.834;2023-05-23T23:09:09;93624.50;;;23.00;48.29
48035;BME280;33812;46.480;6.834;2023-05-23T23:13:13;93627.25;;;23.00;48.32
48035;BME280;33812;46.480;6.834;2023-05-23T23:17:14;93628.03;;;23.00;48.17
48035;BME280;33812;46.480;6.834;2023-05-23T23:21:16;93630.03;;;23.00;48.25
48035;BME280;33812;46.480;6.834;2023-05-23T23:25:18;93628.03;;;23.00;48.17
48035;BME280;33812;46.480;6.834;2023-05-23T23:29:21;93628.81;;;23.01;48.33
48035;BME280;33812;46.480;6.834;2023-05-23T23:33:23;93623.28;;;23.01;48.16
48035;BME280;33812;46.480;6.834;2023-05-23T23:37:25;93633.13;;;23.02;48.29
48035;BME280;33812;46.480;6.834;2023-05-23T23:41:26;93630.34;;;23.02;48.25
48035;BME280;33812;46.480;6.834;2023-05-23T23:45:29;93631.13;;;23.02;48.48
48035;BME280;33812;46.480;6.834;2023-05-23T23:49:31;93631.13;;;23.02;48.20
48035;BME280;33812;46.480;6.834;2023-05-23T23:53:33;93629.13;;;23.03;48.06
48035;BME280;33812;46.480;6.834;2023-05-23T23:57:35;93626.34;;;23.03;48.21
